sensor_id;sensor_type;location;lat;lon;timestamp;P1;durP1;ratioP1;P2;durP2;ratioP2
41885;SDS011;27567;43.084;25.616;2024-01-15T00:01:44;25.35;;;10.00;;
41885;SDS011;27567;43.084;25.616;2024-01-15T00:04:29;25.83;;;9.38;;
41885;SDS011;27567;43.084;25.616;2024-01-15T00:07:13;36.22;;;12.05;;
41885;SDS011;27567;43.084;25.616;2024-01-15T00:09:57;25.55;;;10.77;;
41885;SDS011;27567;43.084;25.616;2024-01-15T00:12:41;25.88;;;9.43;;
41885;SDS011;27567;43.084;25.616;2024-01-15T00:15:24;27.70;;;10.18;;
41885;SDS011;27567;43.084;25.616;2024-01-15T00:18:08;17.63;;;7.47;;
41885;SDS011;27567;43.084;25.616;2024-01-15T00:20:52;15.30;;;6.72;;
41885;SDS011;27567;43.084;25.616;2024-01-15T00:23:36;14.93;;;7.05;;
41885;SDS011;27567;43.084;25.616;2024-01-15T00:26:20;17.13;;;7.10;;
41885;SDS011;27567;43.084;25.616;2024-01-15T00:29:06;15.18;;;7.25;;
41885;SDS011;27567;43.084;25.616;2024-01-15T00:31:51;16.50;;;7.18;;
41885;SDS011;27567;43.084;25.616;2024-01-15T00:34:35;15.15;;;6.68;;
41885;SDS011;27567;43.084;25.616;2024-01-15T00:37:18;21.35;;;8.23;;
41885;SDS011;27567;43.084;25.616;2024-01-15T00:40:03;17.48;;;6.55;;
41885;SDS011;27567;43.084;25.616;2024-01-15T00:42:48;14.07;;;5.88;;
41885;SDS011;27567;43.084;25.616;2024-01-15T00:45:32;14.45;;;6.03;;
41885;SDS011;27567;43.084;25.616;2024-01-15T00:48:16;15.07;;;6.03;;
41885;SDS011;27567;43.084;25.616;2024-01-15T00:51:00;10.88;;;5.65;;
41885;SDS011;27567;43.084;25.616;2024-01-15T00:53:44;13.98;;;5.50;;
41885;SDS011;27567;43.084;25.616;2024-01-15T00:56:28;10.15;;;4.80;;
41885;SDS011;27567;43.084;25.616;2024-01-15T00:59:12;13.85;;;5.88;;
41885;SDS011;27567;43.084;25.616;2024-01-15T01:01:58;11.45;;;5.20;;
41885;SDS011;27567;43.084;25.616;2024-01-15T01:04:42;8.95;;;4.32;;
41885;SDS011;27567;43.084;25.616;2024-01-15T01:07:26;10.25;;;3.90;;
41885;SDS011;27567;43.084;25.616;2024-01-15T01:10:10;12.15;;;4.60;;
41885;SDS011;27567;43.084;25.616;2024-01-15T01:12:54;10.10;;;3.60;;
41885;SDS011;27567;43.084;25.616;2024-01-15T01:15:38;7.22;;;3.35;;
41885;SDS011;27567;43.084;25.616;2024-01-15T01:18:22;8.63;;;4.00;;
41885;SDS011;27567;43.084;25.616;2024-01-15T01:21:06;8.35;;;3.88;;
41885;SDS011;27567;43.084;25.616;2024-01-15T01:23:50;10.23;;;4.50;;
41885;SDS011;27567;43.084;25.616;2024-01-15T01:26:34;10.45;;;3.53;;
41885;SDS011;27567;43.084;25.616;2024-01-15T01:29:18;8.90;;;4.15;;
41885;SDS011;27567;43.084;25.616;2024-01-15T01:32:02;12.00;;;4.80;;
41885;SDS011;27567;43.084;25.616;2024-01-15T01:34:46;14.02;;;4.97;;
41885;SDS011;27567;43.084;25.616;2024-01-15T01:37:30;12.90;;;4.53;;
41885;SDS011;27567;43.084;25.616;2024-01-15T01:40:14;16.13;;;5.43;;
41885;SDS011;27567;43.084;25.616;2024-01-15T01:42:57;11.32;;;4.47;;
41885;SDS011;27567;43.084;25.616;2024-01-15T01:45:41;14.93;;;5.25;;
41885;SDS011;27567;43.084;25.616;2024-01-15T01:48:26;11.63;;;5.22;;
41885;SDS011;27567;43.084;25.616;2024-01-15T01:51:10;10.10;;;4.55;;
41885;SDS011;27567;43.084;25.616;2024-01-15T01:53:55;9.70;;;4.57;;
41885;SDS011;27567;43.084;25.616;2024-01-15T01:56:40;9.35;;;3.65;;
41885;SDS011;27567;43.084;25.616;2024-01-15T01:59:25;7.68;;;3.83;;
41885;SDS011;27567;43.084;25.616;2024-01-15T02:02:10;6.75;;;3.33;;
41885;SDS011;27567;43.084;25.616;2024-01-15T02:04:55;13.88;;;4.18;;
41885;SDS011;27567;43.084;25.616;2024-01-15T02:07:39;10.70;;;4.28;;
41885;SDS011;27567;43.084;25.616;2024-01-15T02:10:24;11.13;;;4.13;;
41885;SDS011;27567;43.084;25.616;2024-01-15T02:13:08;12.25;;;4.15;;
41885;SDS011;27567;43.084;25.616;2024-01-15T02:15:53;9.10;;;4.20;;
41885;SDS011;27567;43.084;25.616;2024-01-15T02:18:43;6.85;;;3.65;;
41885;SDS011;27567;43.084;25.616;2024-01-15T02:21:29;7.88;;;3.42;;
41885;SDS011;27567;43.084;25.616;2024-01-15T02:24:15;11.45;;;3.20;;
41885;SDS011;27567;43.084;25.616;2024-01-15T02:26:59;13.43;;;4.32;;
41885;SDS011;27567;43.084;25.616;2024-01-15T02:29:43;6.85;;;3.40;;
41885;SDS011;27567;43.084;25.616;2024-01-15T02:32:27;7.93;;;3.00;;
41885;SDS011;27567;43.084;25.616;2024-01-15T02:35:11;7.18;;;3.60;;
41885;SDS011;27567;43.084;25.616;2024-01-15T02:37:55;8.07;;;3.38;;
41885;SDS011;27567;43.084;25.616;2024-01-15T02:40:39;8.00;;;3.35;;
41885;SDS011;27567;43.084;25.616;2024-01-15T02:43:23;11.05;;;4.50;;
41885;SDS011;27567;43.084;25.616;2024-01-15T02:46:07;10.52;;;4.03;;
41885;SDS011;27567;43.084;25.616;2024-01-15T02:48:51;11.55;;;3.72;;
41885;SDS011;27567;43.084;25.616;2024-01-15T02:51:35;8.05;;;3.75;;
41885;SDS011;27567;43.084;25.616;2024-01-15T02:54:19;5.90;;;3.13;;
41885;SDS011;27567;43.084;25.616;2024-01-15T02:57:03;6.97;;;2.95;;
41885;SDS011;27567;43.084;25.616;2024-01-15T02:59:47;6.85;;;3.03;;
41885;SDS011;27567;43.084;25.616;2024-01-15T03:02:31;9.10;;;3.70;;
41885;SDS011;27567;43.084;25.616;2024-01-15T03:05:15;13.43;;;5.90;;
41885;SDS011;27567;43.084;25.616;2024-01-15T03:08:00;14.88;;;6.95;;
41885;SDS011;27567;43.084;25.616;2024-01-15T03:10:44;17.85;;;6.15;;
41885;SDS011;27567;43.084;25.616;2024-01-15T03:13:28;18.67;;;8.32;;
41885;SDS011;27567;43.084;25.616;2024-01-15T03:16:12;19.23;;;8.93;;
41885;SDS011;27567;43.084;25.616;2024-01-15T03:18:55;31.05;;;11.52;;
41885;SDS011;27567;43.084;25.616;2024-01-15T03:21:39;25.52;;;9.75;;
41885;SDS011;27567;43.084;25.616;2024-01-15T03:24:23;26.00;;;9.15;;
41885;SDS011;27567;43.084;25.616;2024-01-15T03:27:07;25.10;;;9.40;;
41885;SDS011;27567;43.084;25.616;2024-01-15T03:29:51;21.45;;;9.50;;
41885;SDS011;27567;43.084;25.616;2024-01-15T03:32:36;26.48;;;9.40;;
41885;SDS011;27567;43.084;25.616;2024-01-15T03:35:20;26.05;;;9.90;;
41885;SDS011;27567;43.084;25.616;2024-01-15T03:38:03;21.95;;;8.02;;
41885;SDS011;27567;43.084;25.616;2024-01-15T03:40:47;15.88;;;7.40;;
41885;SDS011;27567;43.084;25.616;2024-01-15T03:43:31;13.00;;;6.28;;
41885;SDS011;27567;43.084;25.616;2024-01-15T03:46:15;19.73;;;7.25;;
41885;SDS011;27567;43.084;25.616;2024-01-15T03:48:59;16.92;;;6.47;;
41885;SDS011;27567;43.084;25.616;2024-01-15T03:51:43;17.00;;;7.38;;
41885;SDS011;27567;43.084;25.616;2024-01-15T03:54:28;17.35;;;6.93;;
41885;SDS011;27567;43.084;25.616;2024-01-15T03:57:12;13.48;;;6.38;;
41885;SDS011;27567;43.084;25.616;2024-01-15T03:59:56;14.05;;;6.43;;
41885;SDS011;27567;43.084;25.616;2024-01-15T04:02:40;12.45;;;5.03;;
41885;SDS011;27567;43.084;25.616;2024-01-15T04:05:24;10.70;;;4.50;;
41885;SDS011;27567;43.084;25.616;2024-01-15T04:08:08;8.88;;;3.35;;
41885;SDS011;27567;43.084;25.616;2024-01-15T04:10:53;7.65;;;2.88;;
41885;SDS011;27567;43.084;25.616;2024-01-15T04:13:36;14.68;;;4.15;;
41885;SDS011;27567;43.084;25.616;2024-01-15T04:16:21;6.88;;;3.15;;
41885;SDS011;27567;43.084;25.616;2024-01-15T04:19:05;6.85;;;2.88;;
41885;SDS011;27567;43.084;25.616;2024-01-15T04:21:49;5.30;;;2.35;;
41885;SDS011;27567;43.084;25.616;2024-01-15T04:24:33;5.03;;;2.97;;
41885;SDS011;27567;43.084;25.616;2024-01-15T04:27:17;9.35;;;2.85;;
41885;SDS011;27567;43.084;25.616;2024-01-15T04:30:01;6.05;;;2.35;;
41885;SDS011;27567;43.084;25.616;2024-01-15T04:32:45;5.50;;;2.53;;
41885;SDS011;27567;43.084;25.616;2024-01-15T04:35:29;5.18;;;1.98;;
41885;SDS011;27567;43.084;25.616;2024-01-15T04:38:14;4.28;;;2.33;;
41885;SDS011;27567;43.084;25.616;2024-01-15T04:40:58;6.63;;;3.22;;
41885;SDS011;27567;43.084;25.616;2024-01-15T04:43:42;6.68;;;3.50;;
41885;SDS011;27567;43.084;25.616;2024-01-15T04:46:26;6.60;;;3.35;;
41885;SDS011;27567;43.084;25.616;2024-01-15T04:49:10;8.82;;;2.78;;
41885;SDS011;27567;43.084;25.616;2024-01-15T04:51:55;8.45;;;3.17;;
41885;SDS011;27567;43.084;25.616;2024-01-15T04:54:39;6.32;;;2.50;;
41885;SDS011;27567;43.084;25.616;2024-01-15T04:57:23;6.68;;;2.70;;
41885;SDS011;27567;43.084;25.616;2024-01-15T05:00:07;10.43;;;3.83;;
41885;SDS011;27567;43.084;25.616;2024-01-15T05:02:51;12.18;;;4.13;;
41885;SDS011;27567;43.084;25.616;2024-01-15T05:05:35;11.55;;;4.28;;
41885;SDS011;27567;43.084;25.616;2024-01-15T05:08:19;11.10;;;4.05;;
41885;SDS011;27567;43.084;25.616;2024-01-15T05:11:03;7.75;;;2.58;;
41885;SDS011;27567;43.084;25.616;2024-01-15T05:13:47;7.15;;;2.47;;
41885;SDS011;27567;43.084;25.616;2024-01-15T05:16:39;14.23;;;4.95;;
41885;SDS011;27567;43.084;25.616;2024-01-15T05:19:24;13.20;;;5.00;;
41885;SDS011;27567;43.084;25.616;2024-01-15T05:22:08;10.48;;;4.10;;
41885;SDS011;27567;43.084;25.616;2024-01-15T05:24:52;10.48;;;3.72;;
41885;SDS011;27567;43.084;25.616;2024-01-15T05:27:36;21.40;;;6.63;;
41885;SDS011;27567;43.084;25.616;2024-01-15T05:30:19;17.08;;;6.35;;
41885;SDS011;27567;43.084;25.616;2024-01-15T05:33:03;21.83;;;7.28;;
41885;SDS011;27567;43.084;25.616;2024-01-15T05:35:48;7.60;;;3.42;;
41885;SDS011;27567;43.084;25.616;2024-01-15T05:38:34;14.25;;;5.35;;
41885;SDS011;27567;43.084;25.616;2024-01-15T05:41:18;17.77;;;5.72;;
41885;SDS011;27567;43.084;25.616;2024-01-15T05:44:02;12.68;;;5.22;;
41885;SDS011;27567;43.084;25.616;2024-01-15T05:46:46;12.43;;;4.85;;
41885;SDS011;27567;43.084;25.616;2024-01-15T05:49:30;12.60;;;4.55;;
41885;SDS011;27567;43.084;25.616;2024-01-15T05:52:14;14.18;;;5.72;;
41885;SDS011;27567;43.084;25.616;2024-01-15T05:54:58;22.45;;;6.00;;
41885;SDS011;27567;43.084;25.616;2024-01-15T05:57:42;21.77;;;5.88;;
41885;SDS011;27567;43.084;25.616;2024-01-15T06:00:26;15.50;;;7.28;;
41885;SDS011;27567;43.084;25.616;2024-01-15T06:03:10;13.48;;;5.75;;
41885;SDS011;27567;43.084;25.616;2024-01-15T06:05:54;21.35;;;7.28;;
41885;SDS011;27567;43.084;25.616;2024-01-15T06:08:38;22.30;;;6.93;;
41885;SDS011;27567;43.084;25.616;2024-01-15T06:11:23;16.08;;;5.72;;
41885;SDS011;27567;43.084;25.616;2024-01-15T06:14:13;8.65;;;4.78;;
41885;SDS011;27567;43.084;25.616;2024-01-15T06:16:57;17.25;;;6.28;;
41885;SDS011;27567;43.084;25.616;2024-01-15T06:19:41;21.73;;;8.70;;
41885;SDS011;27567;43.084;25.616;2024-01-15T06:22:25;16.67;;;7.32;;
41885;SDS011;27567;43.084;25.616;2024-01-15T06:25:09;15.75;;;6.53;;
41885;SDS011;27567;43.084;25.616;2024-01-15T06:27:53;18.00;;;6.60;;
41885;SDS011;27567;43.084;25.616;2024-01-15T06:30:37;23.48;;;8.88;;
41885;SDS011;27567;43.084;25.616;2024-01-15T06:33:22;22.73;;;7.30;;
41885;SDS011;27567;43.084;25.616;2024-01-15T06:36:06;16.65;;;6.40;;
41885;SDS011;27567;43.084;25.616;2024-01-15T06:38:51;18.45;;;6.18;;
41885;SDS011;27567;43.084;25.616;2024-01-15T06:41:35;28.13;;;7.30;;
41885;SDS011;27567;43.084;25.616;2024-01-15T06:44:25;24.73;;;7.47;;
41885;SDS011;27567;43.084;25.616;2024-01-15T06:47:12;20.65;;;7.40;;
41885;SDS011;27567;43.084;25.616;2024-01-15T06:49:56;26.10;;;10.27;;
41885;SDS011;27567;43.084;25.616;2024-01-15T06:52:40;32.15;;;11.77;;
41885;SDS011;27567;43.084;25.616;2024-01-15T06:55:24;31.60;;;11.30;;
41885;SDS011;27567;43.084;25.616;2024-01-15T06:58:09;39.08;;;12.55;;
41885;SDS011;27567;43.084;25.616;2024-01-15T07:00:53;27.48;;;10.20;;
41885;SDS011;27567;43.084;25.616;2024-01-15T07:03:38;32.00;;;11.35;;
41885;SDS011;27567;43.084;25.616;2024-01-15T07:06:22;15.55;;;5.72;;
41885;SDS011;27567;43.084;25.616;2024-01-15T07:09:06;13.15;;;5.38;;
41885;SDS011;27567;43.084;25.616;2024-01-15T07:11:51;16.38;;;5.10;;
41885;SDS011;27567;43.084;25.616;2024-01-15T07:14:35;12.95;;;4.47;;
41885;SDS011;27567;43.084;25.616;2024-01-15T07:17:19;14.05;;;4.70;;
41885;SDS011;27567;43.084;25.616;2024-01-15T07:20:03;16.35;;;5.95;;
41885;SDS011;27567;43.084;25.616;2024-01-15T07:22:47;11.70;;;5.97;;
41885;SDS011;27567;43.084;25.616;2024-01-15T07:25:31;20.90;;;7.10;;
41885;SDS011;27567;43.084;25.616;2024-01-15T07:28:16;13.20;;;6.28;;
41885;SDS011;27567;43.084;25.616;2024-01-15T07:31:00;17.58;;;6.93;;
41885;SDS011;27567;43.084;25.616;2024-01-15T07:33:45;14.93;;;5.72;;
41885;SDS011;27567;43.084;25.616;2024-01-15T07:36:30;14.27;;;5.85;;
41885;SDS011;27567;43.084;25.616;2024-01-15T07:39:14;23.75;;;10.13;;
41885;SDS011;27567;43.084;25.616;2024-01-15T07:41:58;25.95;;;7.32;;
41885;SDS011;27567;43.084;25.616;2024-01-15T07:44:42;24.60;;;8.38;;
41885;SDS011;27567;43.084;25.616;2024-01-15T07:47:34;100.75;;;26.65;;
41885;SDS011;27567;43.084;25.616;2024-01-15T07:50:19;26.80;;;11.25;;
41885;SDS011;27567;43.084;25.616;2024-01-15T07:53:03;20.15;;;7.93;;
41885;SDS011;27567;43.084;25.616;2024-01-15T07:55:48;26.90;;;9.98;;
41885;SDS011;27567;43.084;25.616;2024-01-15T07:58:32;24.42;;;9.13;;
41885;SDS011;27567;43.084;25.616;2024-01-15T08:01:16;27.90;;;9.13;;
41885;SDS011;27567;43.084;25.616;2024-01-15T08:04:01;24.77;;;10.30;;
41885;SDS011;27567;43.084;25.616;2024-01-15T08:06:45;81.88;;;24.92;;
41885;SDS011;27567;43.084;25.616;2024-01-15T08:09:29;29.90;;;11.90;;
41885;SDS011;27567;43.084;25.616;2024-01-15T08:12:13;22.85;;;9.00;;
41885;SDS011;27567;43.084;25.616;2024-01-15T08:14:57;15.15;;;6.57;;
41885;SDS011;27567;43.084;25.616;2024-01-15T08:17:41;66.22;;;22.83;;
41885;SDS011;27567;43.084;25.616;2024-01-15T08:20:25;14.57;;;7.35;;
41885;SDS011;27567;43.084;25.616;2024-01-15T08:23:09;31.70;;;7.60;;
41885;SDS011;27567;43.084;25.616;2024-01-15T08:25:53;16.45;;;6.97;;
41885;SDS011;27567;43.084;25.616;2024-01-15T08:28:37;18.17;;;8.00;;
41885;SDS011;27567;43.084;25.616;2024-01-15T08:31:22;34.85;;;11.77;;
41885;SDS011;27567;43.084;25.616;2024-01-15T08:34:06;28.13;;;10.93;;
41885;SDS011;27567;43.084;25.616;2024-01-15T08:36:50;23.33;;;7.68;;
41885;SDS011;27567;43.084;25.616;2024-01-15T08:39:34;59.10;;;19.25;;
41885;SDS011;27567;43.084;25.616;2024-01-15T08:42:22;30.50;;;10.45;;
41885;SDS011;27567;43.084;25.616;2024-01-15T08:45:06;31.90;;;8.82;;
41885;SDS011;27567;43.084;25.616;2024-01-15T08:47:50;22.65;;;8.98;;
41885;SDS011;27567;43.084;25.616;2024-01-15T08:50:34;18.45;;;7.65;;
41885;SDS011;27567;43.084;25.616;2024-01-15T08:53:18;26.15;;;8.80;;
41885;SDS011;27567;43.084;25.616;2024-01-15T08:56:02;25.52;;;9.93;;
41885;SDS011;27567;43.084;25.616;2024-01-15T08:58:47;30.65;;;10.95;;
41885;SDS011;27567;43.084;25.616;2024-01-15T09:01:31;23.38;;;8.75;;
41885;SDS011;27567;43.084;25.616;2024-01-15T09:04:15;17.40;;;7.65;;
41885;SDS011;27567;43.084;25.616;2024-01-15T09:06:59;16.25;;;7.68;;
41885;SDS011;27567;43.084;25.616;2024-01-15T09:09:43;14.95;;;6.35;;
41885;SDS011;27567;43.084;25.616;2024-01-15T09:12:27;15.63;;;7.20;;
41885;SDS011;27567;43.084;25.616;2024-01-15T09:15:11;22.77;;;8.23;;
41885;SDS011;27567;43.084;25.616;2024-01-15T09:17:56;21.48;;;7.88;;
41885;SDS011;27567;43.084;25.616;2024-01-15T09:20:42;23.63;;;10.15;;
41885;SDS011;27567;43.084;25.616;2024-01-15T09:23:25;25.42;;;10.27;;
41885;SDS011;27567;43.084;25.616;2024-01-15T09:26:09;30.85;;;10.15;;
41885;SDS011;27567;43.084;25.616;2024-01-15T09:28:53;31.23;;;10.85;;
41885;SDS011;27567;43.084;25.616;2024-01-15T09:31:37;24.38;;;10.63;;
41885;SDS011;27567;43.084;25.616;2024-01-15T09:34:21;27.20;;;11.65;;
41885;SDS011;27567;43.084;25.616;2024-01-15T09:37:06;30.48;;;12.45;;
41885;SDS011;27567;43.084;25.616;2024-01-15T09:39:50;32.88;;;11.10;;
41885;SDS011;27567;43.084;25.616;2024-01-15T09:42:34;36.22;;;10.85;;
41885;SDS011;27567;43.084;25.616;2024-01-15T09:45:19;25.70;;;10.88;;
41885;SDS011;27567;43.084;25.616;2024-01-15T09:48:03;29.48;;;12.07;;
41885;SDS011;27567;43.084;25.616;2024-01-15T09:50:47;40.33;;;14.30;;
41885;SDS011;27567;43.084;25.616;2024-01-15T09:53:32;35.05;;;12.27;;
41885;SDS011;27567;43.084;25.616;2024-01-15T09:56:17;51.08;;;14.23;;
41885;SDS011;27567;43.084;25.616;2024-01-15T09:59:01;44.88;;;15.68;;
41885;SDS011;27567;43.084;25.616;2024-01-15T10:01:47;53.03;;;17.60;;
41885;SDS011;27567;43.084;25.616;2024-01-15T10:04:33;46.80;;;17.77;;
41885;SDS011;27567;43.084;25.616;2024-01-15T10:07:17;64.75;;;18.13;;
41885;SDS011;27567;43.084;25.616;2024-01-15T10:10:03;46.30;;;14.38;;
41885;SDS011;27567;43.084;25.616;2024-01-15T10:12:47;62.30;;;20.88;;
41885;SDS011;27567;43.084;25.616;2024-01-15T10:15:35;24.63;;;11.57;;
41885;SDS011;27567;43.084;25.616;2024-01-15T10:18:21;34.13;;;9.63;;
41885;SDS011;27567;43.084;25.616;2024-01-15T10:21:08;25.67;;;8.93;;
41885;SDS011;27567;43.084;25.616;2024-01-15T10:23:52;24.08;;;9.50;;
41885;SDS011;27567;43.084;25.616;2024-01-15T10:26:37;24.52;;;10.00;;
41885;SDS011;27567;43.084;25.616;2024-01-15T10:29:21;28.95;;;10.25;;
41885;SDS011;27567;43.084;25.616;2024-01-15T10:32:08;29.17;;;12.25;;
41885;SDS011;27567;43.084;25.616;2024-01-15T10:34:53;29.08;;;14.40;;
41885;SDS011;27567;43.084;25.616;2024-01-15T10:37:38;31.10;;;13.25;;
41885;SDS011;27567;43.084;25.616;2024-01-15T10:40:21;23.98;;;11.13;;
41885;SDS011;27567;43.084;25.616;2024-01-15T10:43:06;23.30;;;9.63;;
41885;SDS011;27567;43.084;25.616;2024-01-15T10:45:50;22.98;;;8.52;;
41885;SDS011;27567;43.084;25.616;2024-01-15T10:48:35;20.95;;;8.70;;
41885;SDS011;27567;43.084;25.616;2024-01-15T10:51:19;30.88;;;8.50;;
41885;SDS011;27567;43.084;25.616;2024-01-15T10:54:03;34.28;;;9.73;;
41885;SDS011;27567;43.084;25.616;2024-01-15T10:56:49;18.00;;;7.80;;
41885;SDS011;27567;43.084;25.616;2024-01-15T10:59:36;23.17;;;7.03;;
41885;SDS011;27567;43.084;25.616;2024-01-15T11:02:20;16.15;;;6.45;;
41885;SDS011;27567;43.084;25.616;2024-01-15T11:05:05;12.20;;;5.28;;
41885;SDS011;27567;43.084;25.616;2024-01-15T11:07:54;22.55;;;7.68;;
41885;SDS011;27567;43.084;25.616;2024-01-15T11:10:43;19.23;;;6.38;;
41885;SDS011;27567;43.084;25.616;2024-01-15T11:16:21;15.35;;;6.53;;
41885;SDS011;27567;43.084;25.616;2024-01-15T11:19:04;8.30;;;4.45;;
41885;SDS011;27567;43.084;25.616;2024-01-15T11:21:50;24.85;;;5.20;;
41885;SDS011;27567;43.084;25.616;2024-01-15T11:24:35;7.20;;;3.92;;
41885;SDS011;27567;43.084;25.616;2024-01-15T11:27:43;6.32;;;3.63;;
41885;SDS011;27567;43.084;25.616;2024-01-15T11:30:36;9.70;;;4.03;;
41885;SDS011;27567;43.084;25.616;2024-01-15T11:33:33;11.25;;;4.90;;
41885;SDS011;27567;43.084;25.616;2024-01-15T11:36:17;8.07;;;2.88;;
41885;SDS011;27567;43.084;25.616;2024-01-15T11:39:19;6.85;;;3.47;;
41885;SDS011;27567;43.084;25.616;2024-01-15T11:42:20;5.75;;;3.15;;
41885;SDS011;27567;43.084;25.616;2024-01-15T11:45:06;7.78;;;2.38;;
41885;SDS011;27567;43.084;25.616;2024-01-15T11:48:11;8.73;;;3.25;;
41885;SDS011;27567;43.084;25.616;2024-01-15T11:50:56;5.53;;;3.53;;
41885;SDS011;27567;43.084;25.616;2024-01-15T11:53:47;7.57;;;2.97;;
41885;SDS011;27567;43.084;25.616;2024-01-15T11:56:35;6.88;;;3.25;;
41885;SDS011;27567;43.084;25.616;2024-01-15T11:59:19;5.90;;;2.88;;
41885;SDS011;27567;43.084;25.616;2024-01-15T12:02:04;12.30;;;4.03;;
41885;SDS011;27567;43.084;25.616;2024-01-15T12:04:48;5.60;;;2.95;;
41885;SDS011;27567;43.084;25.616;2024-01-15T12:07:32;7.15;;;3.13;;
41885;SDS011;27567;43.084;25.616;2024-01-15T12:10:18;9.73;;;2.80;;
41885;SDS011;27567;43.084;25.616;2024-01-15T12:15:56;4.55;;;2.72;;
41885;SDS011;27567;43.084;25.616;2024-01-15T12:18:40;6.05;;;3.95;;
41885;SDS011;27567;43.084;25.616;2024-01-15T12:21:26;7.18;;;4.25;;
41885;SDS011;27567;43.084;25.616;2024-01-15T12:24:10;7.25;;;2.90;;
41885;SDS011;27567;43.084;25.616;2024-01-15T12:26:54;4.75;;;3.05;;
41885;SDS011;27567;43.084;25.616;2024-01-15T12:29:39;5.28;;;2.35;;
41885;SDS011;27567;43.084;25.616;2024-01-15T12:32:23;4.85;;;3.03;;
41885;SDS011;27567;43.084;25.616;2024-01-15T12:35:08;4.53;;;3.00;;
41885;SDS011;27567;43.084;25.616;2024-01-15T12:37:53;8.65;;;3.83;;
41885;SDS011;27567;43.084;25.616;2024-01-15T12:40:38;6.40;;;3.25;;
41885;SDS011;27567;43.084;25.616;2024-01-15T12:43:22;8.32;;;3.65;;
41885;SDS011;27567;43.084;25.616;2024-01-15T12:46:06;10.45;;;3.35;;
41885;SDS011;27567;43.084;25.616;2024-01-15T12:48:50;10.70;;;3.60;;
41885;SDS011;27567;43.084;25.616;2024-01-15T12:51:35;14.80;;;4.55;;
41885;SDS011;27567;43.084;25.616;2024-01-15T12:54:18;9.60;;;3.08;;
41885;SDS011;27567;43.084;25.616;2024-01-15T12:57:02;8.75;;;3.20;;
41885;SDS011;27567;43.084;25.616;2024-01-15T12:59:47;8.95;;;2.80;;
41885;SDS011;27567;43.084;25.616;2024-01-15T13:02:31;9.93;;;3.67;;
41885;SDS011;27567;43.084;25.616;2024-01-15T13:05:16;6.07;;;2.83;;
41885;SDS011;27567;43.084;25.616;2024-01-15T13:08:00;15.60;;;3.72;;
41885;SDS011;27567;43.084;25.616;2024-01-15T13:10:45;14.05;;;3.40;;
41885;SDS011;27567;43.084;25.616;2024-01-15T13:13:29;10.30;;;2.78;;
41885;SDS011;27567;43.084;25.616;2024-01-15T13:16:13;8.23;;;4.03;;
41885;SDS011;27567;43.084;25.616;2024-01-15T13:18:57;8.40;;;2.30;;
41885;SDS011;27567;43.084;25.616;2024-01-15T13:21:42;7.20;;;3.13;;
41885;SDS011;27567;43.084;25.616;2024-01-15T13:24:27;8.63;;;2.90;;
41885;SDS011;27567;43.084;25.616;2024-01-15T13:27:11;7.20;;;3.63;;
41885;SDS011;27567;43.084;25.616;2024-01-15T13:29:55;9.05;;;3.92;;
41885;SDS011;27567;43.084;25.616;2024-01-15T13:32:39;9.45;;;4.20;;
41885;SDS011;27567;43.084;25.616;2024-01-15T13:35:23;5.72;;;3.60;;
41885;SDS011;27567;43.084;25.616;2024-01-15T13:38:07;7.25;;;3.10;;
41885;SDS011;27567;43.084;25.616;2024-01-15T13:40:52;7.50;;;3.53;;
41885;SDS011;27567;43.084;25.616;2024-01-15T13:43:39;4.75;;;2.63;;
41885;SDS011;27567;43.084;25.616;2024-01-15T13:46:23;9.43;;;3.20;;
41885;SDS011;27567;43.084;25.616;2024-01-15T13:49:10;6.53;;;3.75;;
41885;SDS011;27567;43.084;25.616;2024-01-15T13:51:54;8.75;;;3.88;;
41885;SDS011;27567;43.084;25.616;2024-01-15T13:54:38;8.52;;;4.00;;
41885;SDS011;27567;43.084;25.616;2024-01-15T13:57:22;5.90;;;3.35;;
41885;SDS011;27567;43.084;25.616;2024-01-15T14:00:06;7.75;;;3.60;;
41885;SDS011;27567;43.084;25.616;2024-01-15T14:02:55;10.32;;;4.22;;
41885;SDS011;27567;43.084;25.616;2024-01-15T14:05:39;9.95;;;4.30;;
41885;SDS011;27567;43.084;25.616;2024-01-15T14:08:24;9.13;;;4.32;;
41885;SDS011;27567;43.084;25.616;2024-01-15T14:11:08;6.60;;;3.35;;
41885;SDS011;27567;43.084;25.616;2024-01-15T14:13:56;8.50;;;4.35;;
41885;SDS011;27567;43.084;25.616;2024-01-15T14:16:40;11.45;;;5.82;;
41885;SDS011;27567;43.084;25.616;2024-01-15T14:19:26;18.60;;;6.28;;
41885;SDS011;27567;43.084;25.616;2024-01-15T14:22:10;10.23;;;5.40;;
41885;SDS011;27567;43.084;25.616;2024-01-15T14:24:54;8.43;;;4.75;;
41885;SDS011;27567;43.084;25.616;2024-01-15T14:27:38;11.48;;;4.78;;
41885;SDS011;27567;43.084;25.616;2024-01-15T14:30:22;16.35;;;5.78;;
41885;SDS011;27567;43.084;25.616;2024-01-15T14:33:06;11.45;;;4.50;;
41885;SDS011;27567;43.084;25.616;2024-01-15T14:35:50;10.80;;;3.60;;
41885;SDS011;27567;43.084;25.616;2024-01-15T14:38:34;8.40;;;3.13;;
41885;SDS011;27567;43.084;25.616;2024-01-15T14:41:22;6.90;;;3.72;;
41885;SDS011;27567;43.084;25.616;2024-01-15T14:44:06;8.55;;;4.10;;
41885;SDS011;27567;43.084;25.616;2024-01-15T14:46:50;10.70;;;4.90;;
41885;SDS011;27567;43.084;25.616;2024-01-15T14:49:34;10.20;;;4.80;;
41885;SDS011;27567;43.084;25.616;2024-01-15T14:52:18;8.73;;;4.28;;
41885;SDS011;27567;43.084;25.616;2024-01-15T14:55:03;8.32;;;3.60;;
41885;SDS011;27567;43.084;25.616;2024-01-15T14:57:49;9.93;;;4.30;;
41885;SDS011;27567;43.084;25.616;2024-01-15T15:00:33;11.15;;;4.97;;
41885;SDS011;27567;43.084;25.616;2024-01-15T15:03:17;9.85;;;5.10;;
41885;SDS011;27567;43.084;25.616;2024-01-15T15:06:01;13.60;;;5.63;;
41885;SDS011;27567;43.084;25.616;2024-01-15T15:08:45;9.23;;;4.05;;
41885;SDS011;27567;43.084;25.616;2024-01-15T15:11:29;11.00;;;5.03;;
41885;SDS011;27567;43.084;25.616;2024-01-15T15:14:13;13.45;;;6.05;;
41885;SDS011;27567;43.084;25.616;2024-01-15T15:16:57;6.25;;;3.65;;
41885;SDS011;27567;43.084;25.616;2024-01-15T15:19:41;13.43;;;4.93;;
41885;SDS011;27567;43.084;25.616;2024-01-15T15:22:25;17.75;;;5.00;;
41885;SDS011;27567;43.084;25.616;2024-01-15T15:25:10;8.18;;;4.38;;
41885;SDS011;27567;43.084;25.616;2024-01-15T15:27:55;9.82;;;4.93;;
41885;SDS011;27567;43.084;25.616;2024-01-15T15:30:39;10.38;;;5.15;;
41885;SDS011;27567;43.084;25.616;2024-01-15T15:33:27;7.15;;;4.20;;
41885;SDS011;27567;43.084;25.616;2024-01-15T15:36:11;12.18;;;4.97;;
41885;SDS011;27567;43.084;25.616;2024-01-15T15:38:55;12.35;;;5.95;;
41885;SDS011;27567;43.084;25.616;2024-01-15T15:41:41;14.05;;;6.05;;
41885;SDS011;27567;43.084;25.616;2024-01-15T15:44:25;17.60;;;5.88;;
41885;SDS011;27567;43.084;25.616;2024-01-15T15:47:09;14.63;;;6.68;;
41885;SDS011;27567;43.084;25.616;2024-01-15T15:49:53;12.98;;;5.63;;
41885;SDS011;27567;43.084;25.616;2024-01-15T15:52:37;8.68;;;5.10;;
41885;SDS011;27567;43.084;25.616;2024-01-15T15:55:24;20.80;;;8.68;;
41885;SDS011;27567;43.084;25.616;2024-01-15T15:58:37;10.57;;;5.68;;
41885;SDS011;27567;43.084;25.616;2024-01-15T16:01:28;15.82;;;5.80;;
41885;SDS011;27567;43.084;25.616;2024-01-15T16:04:12;13.68;;;6.47;;
41885;SDS011;27567;43.084;25.616;2024-01-15T16:06:58;16.02;;;7.53;;
41885;SDS011;27567;43.084;25.616;2024-01-15T16:09:46;11.55;;;6.15;;
41885;SDS011;27567;43.084;25.616;2024-01-15T16:12:31;14.65;;;6.63;;